Time,TemperatureF,DewpointF,PressureIn,WindDirection,WindDirectionDegrees,WindSpeedMPH,WindSpeedGustMPH,Humidity,HourlyPrecipIn,Conditions,Clouds,dailyrainin,SoftwareType,DateUTC
2013-07-12 00:02:00,64.0,52.0,30.09,ENE,78,0.0,0.0,65,0.00,,,0.00,,2013-07-12 05:02:00,
2013-07-12 00:11:00,64.0,52.0,30.09,ENE,78,0.0,0.0,65,0.00,,,0.00,,2013-07-12 05:11:00,
2013-07-12 00:22:00,63.0,51.0,30.09,ENE,78,0.0,0.0,66,0.00,,,0.00,,2013-07-12 05:22:00,
2013-07-12 00:32:00,63.0,51.0,30.09,ENE,78,0.0,0.0,66,0.00,,,0.00,,2013-07-12 05:32:00,
2013-07-12 00:43:00,63.0,51.0,30.09,ENE,78,0.0,0.0,66,0.00,,,0.00,,2013-07-12 05:43:00,
2013-07-12 00:53:00,63.0,53.0,30.09,ENE,78,0.0,0.0,71,0.00,,,0.00,,2013-07-12 05:53:00,
2013-07-12 01:01:00,63.0,55.0,30.09,ENE,78,0.0,0.0,74,0.00,,,0.00,,2013-07-12 06:01:00,
2013-07-12 01:11:00,63.0,55.0,30.09,ENE,78,0.0,0.0,76,0.00,,,0.00,,2013-07-12 06:11:00,
2013-07-12 01:22:00,62.0,55.0,30.10,ENE,78,0.0,0.0,77,0.00,,,0.00,,2013-07-12 06:22:00,
2013-07-12 01:33:00,62.0,55.0,30.10,ENE,78,0.0,0.0,79,0.00,,,0.00,,2013-07-12 06:33:00,
2013-07-12 01:42:00,62.0,55.0,30.10,ENE,78,0.0,0.0,79,0.00,,,0.00,,2013-07-12 06:42:00,
2013-07-12 01:52:00,62.0,57.0,30.10,ENE,78,0.0,0.0,84,0.00,,,0.00,,2013-07-12 06:52:00,
2013-07-12 02:02:00,62.0,58.0,30.10,ENE,78,0.0,0.0,86,0.00,,,0.00,,2013-07-12 07:02:00,
2013-07-12 02:12:00,62.0,58.0,30.10,ENE,78,0.0,0.0,86,0.00,,,0.00,,2013-07-12 07:12:00,
2013-07-12 02:22:00,61.0,57.0,30.10,ENE,78,0.0,0.0,86,0.00,,,0.00,,2013-07-12 07:22:00,
2013-07-12 02:32:00,61.0,58.0,30.10,ENE,78,0.0,0.0,89,0.00,,,0.00,,2013-07-12 07:32:00,
2013-07-12 02:43:00,61.0,58.0,30.11,ENE,78,0.0,0.0,89,0.00,,,0.00,,2013-07-12 07:43:00,
2013-07-12 02:52:00,61.0,58.0,30.11,ENE,78,0.0,0.0,89,0.00,,,0.00,,2013-07-12 07:52:00,
2013-07-12 03:01:00,60.0,57.0,30.11,ENE,78,0.0,0.0,89,0.00,,,0.00,,2013-07-12 08:01:00,
2013-07-12 03:11:00,60.0,57.0,30.11,ENE,78,0.0,0.0,89,0.00,,,0.00,,2013-07-12 08:11:00,
2013-07-12 03:21:00,60.0,57.0,30.11,ENE,78,0.0,0.0,89,0.00,,,0.00,,2013-07-12 08:21:00,
2013-07-12 03:32:00,60.0,57.0,30.11,ENE,78,0.0,0.0,90,0.00,,,0.00,,2013-07-12 08:32:00,
2013-07-12 03:42:00,60.0,57.0,30.11,ENE,78,0.0,0.0,90,0.00,,,0.00,,2013-07-12 08:42:00,
2013-07-12 03:53:00,60.0,57.0,30.11,ENE,78,0.0,0.0,90,0.00,,,0.00,,2013-07-12 08:53:00,
2013-07-12 04:02:00,60.0,57.0,30.11,ENE,78,0.0,0.0,90,0.00,,,0.00,,2013-07-12 09:02:00,
2013-07-12 04:12:00,60.0,57.0,30.10,ENE,78,0.0,0.0,90,0.00,,,0.00,,2013-07-12 09:12:00,
2013-07-12 04:22:00,60.0,57.0,30.11,ENE,78,0.0,0.0,91,0.00,,,0.00,,2013-07-12 09:22:00,
2013-07-12 04:32:00,60.0,57.0,30.11,ENE,78,0.0,0.0,91,0.00,,,0.00,,2013-07-12 09:32:00,
2013-07-12 04:43:00,60.0,57.0,30.11,ENE,78,0.0,0.0,91,0.00,,,0.00,,2013-07-12 09:43:00,
2013-07-12 04:52:00,60.0,57.0,30.11,ENE,78,0.0,0.0,91,0.00,,,0.00,,2013-07-12 09:52:00,
2013-07-12 05:01:00,60.0,57.0,30.11,ENE,78,0.0,0.0,91,0.00,,,0.00,,2013-07-12 10:01:00,
2013-07-12 05:22:00,59.0,57.0,30.12,ENE,78,0.0,0.0,92,0.00,,,0.00,,2013-07-12 10:22:00,
2013-07-12 05:33:00,60.0,58.0,30.12,ENE,78,0.0,0.0,93,0.00,,,0.00,,2013-07-12 10:33:00,
2013-07-12 05:42:00,60.0,58.0,30.12,ENE,78,0.0,0.0,93,0.00,,,0.00,,2013-07-12 10:42:00,
2013-07-12 05:52:00,60.0,58.0,30.12,ENE,78,0.0,0.0,93,0.00,,,0.00,,2013-07-12 10:52:00,
2013-07-12 06:02:00,60.0,58.0,30.12,ENE,78,0.0,0.0,94,0.00,,,0.00,,2013-07-12 11:02:00,
2013-07-12 06:22:00,60.0,59.0,30.12,ENE,78,0.0,0.0,95,0.00,,,0.00,,2013-07-12 11:22:00,
2013-07-12 06:32:00,60.0,59.0,30.12,ENE,78,0.0,0.0,95,0.00,,,0.00,,2013-07-12 11:32:00,
2013-07-12 06:43:00,59.0,58.0,30.13,ENE,78,0.0,0.0,95,0.00,,,0.00,,2013-07-12 11:43:00,
2013-07-12 06:52:00,60.0,59.0,30.14,ENE,78,0.0,0.0,95,0.00,,,0.00,,2013-07-12 11:52:00,
2013-07-12 07:01:00,60.0,59.0,30.14,ENE,78,0.0,0.0,95,0.00,,,0.00,,2013-07-12 12:01:00,
2013-07-12 07:11:00,60.0,59.0,30.14,ENE,78,0.0,0.0,95,0.00,,,0.00,,2013-07-12 12:11:00,
2013-07-12 07:22:00,61.0,60.0,30.15,ENE,78,0.0,0.0,95,0.00,,,0.00,,2013-07-12 12:22:00,
2013-07-12 07:32:00,61.0,59.0,30.15,ENE,78,0.0,0.0,92,0.00,,,0.00,,2013-07-12 12:32:00,
2013-07-12 07:43:00,61.0,59.0,30.15,ENE,78,0.0,0.0,92,0.00,,,0.00,,2013-07-12 12:43:00,
2013-07-12 07:52:00,61.0,59.0,30.15,ENE,78,0.0,0.0,92,0.00,,,0.00,,2013-07-12 12:52:00,
2013-07-12 08:01:00,64.0,58.0,30.15,ENE,78,0.0,0.0,81,0.00,,,0.00,,2013-07-12 13:01:00,
2013-07-12 08:12:00,65.0,59.0,30.16,ENE,78,0.0,0.0,81,0.00,,,0.00,,2013-07-12 13:12:00,
2013-07-12 08:22:00,65.0,59.0,30.16,ENE,78,0.0,0.0,82,0.00,,,0.00,,2013-07-12 13:22:00,
2013-07-12 08:32:00,65.0,59.0,30.16,ENE,78,0.0,0.0,80,0.00,,,0.00,,2013-07-12 13:32:00,
2013-07-12 08:43:00,65.0,57.0,30.16,ENE,78,0.0,0.0,76,0.00,,,0.00,,2013-07-12 13:43:00,
2013-07-12 08:53:00,66.0,56.0,30.15,ENE,78,0.0,0.0,71,0.00,,,0.00,,2013-07-12 13:53:00,
2013-07-12 09:02:00,66.0,56.0,30.15,ENE,78,0.0,0.0,71,0.00,,,0.00,,2013-07-12 14:02:00,
2013-07-12 09:11:00,66.0,56.0,30.15,ENE,78,0.0,0.0,71,0.00,,,0.00,,2013-07-12 14:11:00,
2013-07-12 09:22:00,68.0,48.0,30.16,ENE,78,0.0,1.0,48,0.00,,,0.00,,2013-07-12 14:22:00,
2013-07-12 09:32:00,69.0,46.0,30.16,ENE,78,0.0,0.0,43,0.00,,,0.00,,2013-07-12 14:32:00,
2013-07-12 09:44:00,70.0,49.0,30.16,ENE,78,0.0,0.0,47,0.00,,,0.00,,2013-07-12 14:44:00,
2013-07-12 09:53:00,70.0,48.0,30.15,ENE,78,0.0,1.0,46,0.00,,,0.00,,2013-07-12 14:53:00,
2013-07-12 10:02:00,71.0,49.0,30.15,ENE,78,0.0,0.0,46,0.00,,,0.00,,2013-07-12 15:02:00,
2013-07-12 10:11:00,72.0,52.0,30.15,ENE,78,0.0,1.0,50,0.00,,,0.00,,2013-07-12 15:11:00,
2013-07-12 10:22:00,72.0,52.0,30.15,ENE,78,0.0,1.0,50,0.00,,,0.00,,2013-07-12 15:22:00,
2013-07-12 10:33:00,72.0,52.0,30.15,ENE,78,0.0,1.0,50,0.00,,,0.00,,2013-07-12 15:33:00,
2013-07-12 10:43:00,78.0,53.0,30.15,ENE,78,0.0,0.0,42,0.00,,,0.00,,2013-07-12 15:43:00,
2013-07-12 10:52:00,79.0,52.0,30.14,ENE,78,2.0,2.0,39,0.00,,,0.00,,2013-07-12 15:52:00,
2013-07-12 11:01:00,79.0,51.0,30.14,ENE,78,0.0,1.0,38,0.00,,,0.00,,2013-07-12 16:01:00,
2013-07-12 11:11:00,79.0,51.0,30.14,ENE,78,0.0,1.0,38,0.00,,,0.00,,2013-07-12 16:11:00,
2013-07-12 11:32:00,80.0,44.0,30.15,ENE,78,0.0,3.0,28,0.00,,,0.00,,2013-07-12 16:32:00,
2013-07-12 11:43:00,80.0,44.0,30.15,ENE,78,0.0,3.0,28,0.00,,,0.00,,2013-07-12 16:43:00,
2013-07-12 11:58:00,80.0,47.0,30.14,ENE,61,0.0,3.0,31,0.00,,,0.00,,2013-07-12 16:58:00,
2013-07-12 12:05:00,81.0,46.0,30.14,ENE,61,0.0,1.0,29,0.00,,,0.00,,2013-07-12 17:05:00,
2013-07-12 12:24:00,80.0,40.0,30.14,ESE,107,0.0,3.0,24,0.00,,,0.00,,2013-07-12 17:24:00,
2013-07-12 12:36:00,80.0,40.0,30.14,ESE,107,0.0,3.0,24,0.00,,,0.00,,2013-07-12 17:36:00,
2013-07-12 12:44:00,81.0,40.0,30.13,SE,146,2.0,5.0,23,0.00,,,0.00,,2013-07-12 17:44:00,
2013-07-12 12:53:00,82.0,42.0,30.12,East,92,2.0,4.0,24,0.00,,,0.00,,2013-07-12 17:53:00,
2013-07-12 13:06:00,82.0,45.0,30.12,SSW,208,0.0,0.0,27,0.00,,,0.00,,2013-07-12 18:06:00,
2013-07-12 13:14:00,82.0,47.0,30.12,WSW,254,1.0,6.0,30,0.00,,,0.00,,2013-07-12 18:14:00,
2013-07-12 13:26:00,82.0,47.0,30.12,WSW,254,1.0,6.0,30,0.00,,,0.00,,2013-07-12 18:26:00,
2013-07-12 13:34:00,82.0,47.0,30.12,WSW,254,1.0,6.0,30,0.00,,,0.00,,2013-07-12 18:34:00,
2013-07-12 14:05:00,83.0,51.0,30.12,West,268,0.0,3.0,33,0.00,,,0.00,,2013-07-12 19:05:00,
2013-07-12 14:15:00,82.0,50.0,30.12,WSW,252,3.0,5.0,33,0.00,,,0.00,,2013-07-12 19:15:00,
2013-07-12 14:23:00,80.0,53.0,30.11,South,171,1.0,7.0,39,0.00,,,0.00,,2013-07-12 19:23:00,
2013-07-12 14:33:00,82.0,48.0,30.11,SSE,147,0.0,5.0,31,0.00,,,0.00,,2013-07-12 19:33:00,
2013-07-12 14:46:00,81.0,47.0,30.11,West,263,3.0,7.0,31,0.00,,,0.00,,2013-07-12 19:46:00,
2013-07-12 14:55:00,80.0,52.0,30.11,WSW,242,4.0,9.0,38,0.00,,,0.00,,2013-07-12 19:55:00,
2013-07-12 15:02:00,80.0,52.0,30.11,WSW,242,4.0,9.0,38,0.00,,,0.00,,2013-07-12 20:02:00,
2013-07-12 15:24:00,83.0,52.0,30.10,WSW,240,2.0,3.0,34,0.00,,,0.00,,2013-07-12 20:24:00,
2013-07-12 15:33:00,83.0,52.0,30.10,WSW,240,2.0,3.0,34,0.00,,,0.00,,2013-07-12 20:33:00,
2013-07-12 15:47:00,82.0,51.0,30.11,WSW,257,1.0,6.0,34,0.00,,,0.00,,2013-07-12 20:47:00,
2013-07-12 15:55:00,84.0,53.0,30.11,SSE,151,3.0,3.0,34,0.00,,,0.00,,2013-07-12 20:55:00,
2013-07-12 16:03:00,84.0,53.0,30.10,South,186,0.0,5.0,34,0.00,,,0.00,,2013-07-12 21:03:00,
2013-07-12 16:15:00,84.0,53.0,30.10,South,186,0.0,5.0,34,0.00,,,0.00,,2013-07-12 21:15:00,
2013-07-12 16:25:00,84.0,53.0,30.10,WSW,247,0.0,2.0,35,0.00,,,0.00,,2013-07-12 21:25:00,
2013-07-12 16:30:00,85.0,53.0,30.10,WSW,244,3.0,5.0,34,0.00,,,0.00,,2013-07-12 21:30:00,
2013-07-12 16:35:00,84.0,53.0,30.10,SSE,158,4.0,5.0,35,0.00,,,0.00,,2013-07-12 21:35:00,
2013-07-12 16:46:00,84.0,50.0,30.10,South,180,1.0,3.0,31,0.00,,,0.00,,2013-07-12 21:46:00,
2013-07-12 16:58:00,85.0,53.0,30.10,WSW,244,3.0,5.0,34,0.00,,,0.00,,2013-07-12 21:58:00,
2013-07-12 17:04:00,85.0,53.0,30.10,WSW,244,3.0,5.0,34,0.00,,,0.00,,2013-07-12 22:04:00,
2013-07-12 17:16:00,85.0,53.0,30.10,WSW,244,3.0,5.0,34,0.00,,,0.00,,2013-07-12 22:16:00,
2013-07-12 17:23:00,85.0,53.0,30.10,WSW,244,3.0,5.0,34,0.00,,,0.00,,2013-07-12 22:23:00,
2013-07-12 18:04:00,85.0,53.0,30.08,WSW,246,3.0,3.0,33,0.00,,,0.00,,2013-07-12 23:04:00,
2013-07-12 18:13:00,85.0,53.0,30.08,WSW,246,3.0,3.0,33,0.00,,,0.00,,2013-07-12 23:13:00,
2013-07-12 18:25:00,85.0,53.0,30.08,WSW,246,3.0,3.0,33,0.00,,,0.00,,2013-07-12 23:25:00,
2013-07-12 18:35:00,82.0,55.0,30.08,SW,218,1.0,2.0,39,0.00,,,0.00,,2013-07-12 23:35:00,
2013-07-12 18:43:00,82.0,55.0,30.08,SW,218,1.0,2.0,39,0.00,,,0.00,,2013-07-12 23:43:00,
2013-07-12 19:17:00,81.0,54.0,30.08,SSE,165,0.0,3.0,40,0.00,,,0.00,,2013-07-13 00:17:00,
2013-07-12 19:25:00,81.0,57.0,30.07,SSE,155,0.0,3.0,44,0.00,,,0.00,,2013-07-13 00:25:00,
2013-07-12 19:33:00,81.0,57.0,30.07,SSE,155,0.0,3.0,44,0.00,,,0.00,,2013-07-13 00:33:00,
2013-07-12 19:56:00,80.0,58.0,30.08,SSE,164,3.0,6.0,47,0.00,,,0.00,,2013-07-13 00:56:00,
2013-07-12 20:04:00,78.0,58.0,30.09,SSE,163,0.0,2.0,50,0.00,,,0.00,,2013-07-13 01:04:00,
2013-07-12 20:13:00,78.0,58.0,30.09,SSE,163,0.0,2.0,50,0.00,,,0.00,,2013-07-13 01:13:00,
2013-07-12 20:24:00,78.0,58.0,30.09,SSE,163,0.0,2.0,50,0.00,,,0.00,,2013-07-13 01:24:00,
2013-07-12 20:37:00,77.0,57.0,30.09,SSE,154,1.0,3.0,51,0.00,,,0.00,,2013-07-13 01:37:00,
2013-07-12 20:47:00,76.0,57.0,30.09,SSE,157,0.0,2.0,52,0.00,,,0.00,,2013-07-13 01:47:00,
2013-07-12 20:56:00,76.0,57.0,30.09,SSE,157,0.0,2.0,52,0.00,,,0.00,,2013-07-13 01:56:00,
2013-07-12 21:05:00,74.0,58.0,30.09,SSE,166,0.0,0.0,58,0.00,,,0.00,,2013-07-13 02:05:00,
2013-07-12 21:14:00,74.0,58.0,30.09,SSE,166,0.0,0.0,58,0.00,,,0.00,,2013-07-13 02:14:00,
2013-07-12 21:24:00,72.0,58.0,30.10,SSE,165,0.0,0.0,62,0.00,,,0.00,,2013-07-13 02:24:00,
2013-07-12 21:46:00,70.0,57.0,30.11,SSE,164,0.0,0.0,64,0.00,,,0.00,,2013-07-13 02:46:00,
2013-07-12 21:55:00,70.0,57.0,30.11,SSE,164,0.0,0.0,64,0.00,,,0.00,,2013-07-13 02:55:00,
2013-07-12 22:05:00,70.0,57.0,30.11,SSE,164,0.0,0.0,64,0.00,,,0.00,,2013-07-13 03:05:00,
2013-07-12 22:13:00,70.0,57.0,30.11,SSE,164,0.0,0.0,64,0.00,,,0.00,,2013-07-13 03:13:00,
2013-07-12 22:27:00,69.0,58.0,30.10,SSE,161,0.0,2.0,68,0.00,,,0.00,,2013-07-13 03:27:00,
2013-07-12 22:37:00,69.0,58.0,30.10,SSE,161,0.0,2.0,68,0.00,,,0.00,,2013-07-13 03:37:00,
2013-07-12 22:46:00,69.0,58.0,30.10,SSE,161,0.0,2.0,68,0.00,,,0.00,,2013-07-13 03:46:00,
2013-07-12 22:57:00,69.0,58.0,30.10,SSE,161,0.0,2.0,68,0.00,,,0.00,,2013-07-13 03:57:00,
2013-07-12 23:01:00,67.0,56.0,30.10,South,170,0.0,2.0,69,0.00,,,0.00,,2013-07-13 04:01:00,
2013-07-12 23:12:00,67.0,56.0,30.10,SSE,155,0.0,3.0,67,0.00,,,0.00,,2013-07-13 04:12:00,
2013-07-12 23:22:00,67.0,55.0,30.10,SSE,161,0.0,1.0,66,0.00,,,0.00,,2013-07-13 04:22:00,
2013-07-12 23:32:00,67.0,55.0,30.10,SSE,161,0.0,1.0,66,0.00,,,0.00,,2013-07-13 04:32:00,
2013-07-12 23:43:00,66.0,55.0,30.10,SSE,161,0.0,0.0,67,0.00,,,0.00,,2013-07-13 04:43:00,
2013-07-12 23:52:00,66.0,55.0,30.09,SSE,161,0.0,0.0,67,0.00,,,0.00,,2013-07-13 04:52:00,